Terminal Aerodrome Forecast
Issued by NWS Mt. Holly, NJ

Home | Current Version | Previous Version | Text Only | Print | Product List | Glossary On
Versions: 1 2 3 4 5 6 7 8 9 10 11 12 13 14 15 16 17 18 19
000
FTUS41 KPHI 011700
TAFTTN
TAF
KTTN 011720Z 0118/0218 05007KT P6SM BKN025
      TEMPO 0118/0122 BKN035
     FM020000 35003KT P6SM BKN020
     FM021500 02009KT P6SM BKN030=

USA.gov is the U.S. government's official web portal to all federal, state and local government web resources and services.